createdAt,value
2015-02-22T08:29:22.571Z,100624
2015-02-22T08:29:33.237Z,100619
2015-02-22T08:29:43.895Z,100621
2015-02-22T08:29:55.005Z,100624
2015-02-22T08:30:08.555Z,100618
2015-02-22T08:30:19.507Z,100624
2015-02-22T08:30:30.003Z,100629
2015-02-22T08:30:40.709Z,100626
2015-02-22T08:30:51.275Z,100631
2015-02-22T08:31:02.086Z,100626
2015-02-22T08:31:12.713Z,100623
2015-02-22T08:31:26.324Z,100625
2015-02-22T08:31:36.916Z,100636
2015-02-22T08:31:47.620Z,100625
2015-02-22T08:31:58.782Z,100628
2015-02-22T08:32:15.761Z,100622
2015-02-22T08:33:22.051Z,100616
2015-02-22T08:33:32.668Z,100619
2015-02-22T08:33:43.162Z,100624
2015-02-22T08:33:53.682Z,100630
2015-02-22T08:34:04.458Z,100624
2015-02-22T08:34:15.152Z,100616
2015-02-22T08:34:25.775Z,100622
2015-02-22T08:34:36.426Z,100627
2015-02-22T08:34:47.157Z,100624
2015-02-22T08:34:57.668Z,100630
2015-02-22T08:35:11.020Z,100636
2015-02-22T08:35:21.726Z,100636
2015-02-22T08:35:32.270Z,100627
2015-02-22T08:35:42.803Z,100630
2015-02-22T08:35:54.914Z,100633
2015-02-22T08:36:05.825Z,100635
2015-02-22T08:36:16.458Z,100633
2015-02-22T08:36:27.154Z,100635
2015-02-22T08:36:37.922Z,100633
2015-02-22T08:36:48.632Z,100627
2015-02-22T08:36:59.388Z,100630
2015-02-22T08:37:10.081Z,100632
2015-02-22T08:37:21.173Z,100624
2015-02-22T08:37:31.919Z,100630
2015-02-22T08:37:42.825Z,100632
2015-02-22T08:37:53.381Z,100632
2015-02-22T08:38:04.236Z,100630
2015-02-22T08:38:15.302Z,100629
2015-02-22T08:38:26.030Z,100635
2015-02-22T08:38:36.538Z,100624
2015-02-22T08:38:50.167Z,100627
2015-02-22T08:39:01.843Z,100621
2015-02-22T08:39:18.765Z,100624
2015-02-22T08:39:29.392Z,100624
2015-02-22T08:39:39.898Z,100630
2015-02-22T08:39:50.464Z,100633
2015-02-22T08:41:03.929Z,100632
2015-02-22T08:41:14.633Z,100629
2015-02-22T08:41:25.384Z,100632
2015-02-22T08:41:36.155Z,100632
2015-02-22T08:41:46.963Z,100635
2015-02-22T08:41:57.712Z,100638
2015-02-22T08:42:08.461Z,100627
2015-02-22T08:42:19.094Z,100635
2015-02-22T08:42:30.742Z,100632
2015-02-22T08:42:41.373Z,100635
2015-02-22T08:42:51.961Z,100638
2015-02-22T08:43:03.264Z,100629
2015-02-22T08:43:16.913Z,100638
2015-02-22T08:43:27.597Z,100635
2015-02-22T08:43:38.293Z,100627
2015-02-22T08:43:48.962Z,100643
2015-02-22T08:43:59.829Z,100632
2015-02-22T08:44:10.575Z,100641
2015-02-22T08:44:21.130Z,100641
2015-02-22T08:44:31.640Z,100635
2015-02-22T08:44:42.209Z,100638
2015-02-22T08:44:52.803Z,100627
2015-02-22T08:46:02.080Z,100641
2015-02-22T08:46:12.548Z,100632
2015-02-22T08:46:23.038Z,100635
2015-02-22T08:46:33.909Z,100632
2015-02-22T08:46:44.352Z,100624
2015-02-22T08:46:55.277Z,100629
2015-02-22T08:47:05.939Z,100635
2015-02-22T08:47:20.626Z,100632
2015-02-22T08:47:31.141Z,100638
2015-02-22T08:47:41.677Z,100635
2015-02-22T08:47:52.268Z,100633
2015-02-22T08:48:03.315Z,100630
2015-02-22T08:48:13.722Z,100638
2015-02-22T08:48:24.291Z,100624
2015-02-22T08:48:34.874Z,100641
2015-02-22T08:48:45.551Z,100630
2015-02-22T08:48:56.848Z,100630
2015-02-22T08:49:07.389Z,100627
2015-02-22T08:49:18.326Z,100635
2015-02-22T08:49:28.936Z,100624
2015-02-22T08:49:39.801Z,100630
2015-02-22T08:49:50.249Z,100630
2015-02-22T08:50:04.849Z,100627
2015-02-22T08:50:16.095Z,100633
2015-02-22T08:50:26.763Z,100633
2015-02-22T08:50:37.383Z,100633
2015-02-22T08:50:48.017Z,100635
2015-02-22T08:50:59.512Z,100641
2015-02-22T08:51:10.081Z,100630
2015-02-22T08:51:20.686Z,100644
2015-02-22T08:51:31.485Z,100635
2015-02-22T08:51:41.968Z,100630
2015-02-22T08:51:52.542Z,100633
2015-02-22T08:52:59.126Z,100633
2015-02-22T08:53:09.762Z,100635
2015-02-22T08:53:20.211Z,100630
2015-02-22T08:53:37.956Z,100636
2015-02-22T08:53:48.928Z,100633
2015-02-22T08:53:59.637Z,100636
2015-02-22T08:54:10.965Z,100641
2015-02-22T08:54:21.655Z,100627
2015-02-22T08:54:32.732Z,100630
2015-02-22T08:54:43.443Z,100635
2015-02-22T08:54:53.914Z,100641
2015-02-22T08:55:06.199Z,100644
2015-02-22T08:55:16.905Z,100638
2015-02-22T08:55:27.515Z,100635
2015-02-22T08:55:38.052Z,100630
2015-02-22T08:55:48.647Z,100638
2015-02-22T08:55:59.451Z,100638
2015-02-22T08:56:10.652Z,100633
2015-02-22T08:56:21.066Z,100644
2015-02-22T08:56:31.730Z,100641
2015-02-22T08:56:42.490Z,100647
2015-02-22T08:56:53.039Z,100647
2015-02-22T08:57:03.747Z,100647
2015-02-22T08:57:14.341Z,100641
2015-02-22T08:57:25.647Z,100638
2015-02-22T08:57:36.295Z,100638
2015-02-22T08:57:47.474Z,100647
2015-02-22T08:58:05.766Z,100644
2015-02-22T08:58:16.188Z,100638
2015-02-22T08:58:26.692Z,100649
2015-02-22T08:58:37.652Z,100649
2015-02-22T08:58:48.223Z,100649
2015-02-22T08:58:59.550Z,100641
2015-02-22T08:59:10.252Z,100632
2015-02-22T08:59:20.745Z,100638
2015-02-22T08:59:31.419Z,100646
2015-02-22T08:59:42.686Z,100652
2015-02-22T08:59:53.542Z,100652
2015-02-22T09:01:02.850Z,100646
2015-02-22T09:01:13.955Z,100646
2015-02-22T09:01:24.961Z,100649
2015-02-22T09:01:36.018Z,100635
2015-02-22T09:01:47.087Z,100657
2015-02-22T09:01:58.891Z,100641
2015-02-22T09:02:09.837Z,100646
2015-02-22T09:02:21.117Z,100644
2015-02-22T09:02:41.848Z,100649
2015-02-22T09:02:52.647Z,100649
2015-02-22T09:03:04.459Z,100655
2015-02-22T09:03:15.359Z,100652
2015-02-22T09:03:26.228Z,100649
2015-02-22T09:03:37.025Z,100649
2015-02-22T09:03:48.354Z,100641
2015-02-22T09:03:59.341Z,100657
2015-02-22T09:04:16.616Z,100655
2015-02-22T09:04:27.265Z,100652
2015-02-22T09:04:38.070Z,100649
2015-02-22T09:04:49.013Z,100655
2015-02-22T09:05:04.457Z,100649
2015-02-22T09:05:17.733Z,100655
2015-02-22T09:05:28.512Z,100655
2015-02-22T09:05:45.902Z,100659
2015-02-22T09:06:52.143Z,100649
2015-02-22T09:07:04.391Z,100652
2015-02-22T09:07:15.572Z,100655
2015-02-22T09:07:26.605Z,100655
2015-02-22T09:07:37.400Z,100657
2015-02-22T09:07:48.350Z,100662
2015-02-22T09:08:57.827Z,100657
2015-02-22T09:09:09.393Z,100660
2015-02-22T09:09:20.788Z,100662
2015-02-22T09:09:32.061Z,100665
2015-02-22T09:09:43.461Z,100662
2015-02-22T09:09:54.896Z,100652
2015-02-22T09:10:09.852Z,100657
2015-02-22T09:10:21.442Z,100655
2015-02-22T09:10:32.065Z,100657
2015-02-22T09:10:42.894Z,100663
2015-02-22T09:10:55.290Z,100657
2015-02-22T09:11:06.116Z,100655
2015-02-22T09:11:16.765Z,100652
2015-02-22T09:11:27.428Z,100663
2015-02-22T09:11:38.332Z,100660
2015-02-22T09:11:49.300Z,100649
2015-02-22T09:12:00.127Z,100655
2015-02-22T09:12:11.767Z,100652
2015-02-22T09:12:22.583Z,100657
2015-02-22T09:12:33.515Z,100657
2015-02-22T09:12:44.109Z,100652
2015-02-22T09:13:50.158Z,100657
2015-02-22T09:14:01.806Z,100660
2015-02-22T09:14:12.646Z,100663
2015-02-22T09:14:23.391Z,100663
2015-02-22T09:14:34.250Z,100660
2015-02-22T09:14:46.014Z,100655
2015-02-22T09:15:52.203Z,100660
2015-02-22T09:16:03.624Z,100663
2015-02-22T09:16:14.217Z,100666
2015-02-22T09:16:24.963Z,100660
2015-02-22T09:16:35.495Z,100650
2015-02-22T09:16:46.260Z,100660
2015-02-22T09:17:52.187Z,100647
2015-02-22T09:18:03.989Z,100666
2015-02-22T09:18:14.909Z,100658
2015-02-22T09:18:26.051Z,100655
2015-02-22T09:18:37.129Z,100666
2015-02-22T09:18:47.874Z,100653
2015-02-22T09:19:01.830Z,100650
2015-02-22T09:19:12.571Z,100647
2015-02-22T09:19:23.419Z,100660
2015-02-22T09:19:34.178Z,100647
2015-02-22T09:19:44.945Z,100669
2015-02-22T09:19:55.602Z,100645
2015-02-22T09:21:04.354Z,100658
2015-02-22T09:21:15.200Z,100666
2015-02-22T09:21:25.724Z,100664
2015-02-22T09:21:36.746Z,100658
2015-02-22T09:21:47.538Z,100655
2015-02-22T09:21:59.324Z,100655
2015-02-22T09:22:09.906Z,100655
2015-02-22T09:22:21.035Z,100655
2015-02-22T09:22:31.981Z,100655
2015-02-22T09:22:48.984Z,100664
2015-02-22T09:22:59.961Z,100667
2015-02-22T09:23:10.711Z,100661
2015-02-22T09:23:21.310Z,100664
2015-02-22T09:23:31.780Z,100669
2015-02-22T09:23:42.987Z,100653
2015-02-22T09:23:53.625Z,100655
2015-02-22T09:24:04.373Z,100658
2015-02-22T09:24:15.075Z,100655
2015-02-22T09:24:25.622Z,100661
2015-02-22T09:24:36.431Z,100658
2015-02-22T09:24:47.000Z,100658
2015-02-22T09:24:57.571Z,100658
2015-02-22T09:25:11.483Z,100664
2015-02-22T09:25:22.595Z,100656
2015-02-22T09:25:33.410Z,100659
2015-02-22T09:25:43.922Z,100656
2015-02-22T09:25:55.439Z,100664
2015-02-22T09:26:06.145Z,100673
2015-02-22T09:26:16.607Z,100664
2015-02-22T09:26:27.236Z,100659
2015-02-22T09:26:37.655Z,100659
2015-02-22T09:26:48.547Z,100661
2015-02-22T09:26:59.532Z,100659
2015-02-22T09:27:11.126Z,100661
2015-02-22T09:27:21.596Z,100664
2015-02-22T09:27:32.034Z,100656
2015-02-22T09:27:42.685Z,100659
2015-02-22T09:27:53.293Z,100659
2015-02-22T09:28:03.903Z,100662
2015-02-22T09:28:14.371Z,100662
2015-02-22T09:28:24.995Z,100676
2015-02-22T09:29:32.137Z,100667
2015-02-22T09:29:42.767Z,100656
2015-02-22T09:30:52.274Z,100659
2015-02-22T09:31:04.585Z,100670
2015-02-22T09:31:15.983Z,100667
2015-02-22T09:31:26.642Z,100656
2015-02-22T09:31:37.632Z,100665
2015-02-22T09:31:48.480Z,100665
2015-02-22T09:32:54.966Z,100676
2015-02-22T09:33:06.599Z,100665
2015-02-22T09:33:17.479Z,100668
2015-02-22T09:33:28.609Z,100665
2015-02-22T09:33:40.205Z,100659
2015-02-22T09:33:50.958Z,100662
2015-02-22T09:34:01.902Z,100665
2015-02-22T09:34:12.479Z,100662
2015-02-22T09:34:23.336Z,100679
2015-02-22T09:34:34.153Z,100659
2015-02-22T09:34:45.078Z,100659
2015-02-22T09:34:56.911Z,100665
2015-02-22T09:35:11.490Z,100665
2015-02-22T09:36:14.462Z,100671
2015-02-22T09:36:25.321Z,100665
2015-02-22T09:37:30.340Z,100665
2015-02-22T09:37:41.029Z,100668
2015-02-22T09:37:51.627Z,100662
2015-02-22T09:38:03.621Z,100656
2015-02-22T09:38:14.543Z,100659
2015-02-22T09:38:25.921Z,100652
2015-02-22T09:38:37.126Z,100659
2015-02-22T09:38:47.675Z,100659
2015-02-22T09:38:59.711Z,100662
2015-02-22T09:39:11.725Z,100659
2015-02-22T09:39:22.779Z,100668
2015-02-22T09:39:33.490Z,100659
2015-02-22T09:39:44.221Z,100662
2015-02-22T09:40:50.243Z,100662
2015-02-22T09:41:01.684Z,100662
2015-02-22T09:41:13.079Z,100662
2015-02-22T09:41:23.627Z,100657
2015-02-22T09:41:34.446Z,100652
2015-02-22T09:41:45.033Z,100659
2015-02-22T09:41:56.935Z,100657
2015-02-22T09:42:07.716Z,100662
2015-02-22T09:42:18.645Z,100662
2015-02-22T09:42:29.446Z,100657
2015-02-22T09:42:40.035Z,100655
2015-02-22T09:42:53.278Z,100671
2015-02-22T09:43:04.101Z,100655
2015-02-22T09:43:14.798Z,100671
2015-02-22T09:43:25.653Z,100668
2015-02-22T09:43:37.915Z,100662
2015-02-22T09:43:49.145Z,100660
2015-02-22T09:43:59.885Z,100668
2015-02-22T09:44:10.556Z,100662
2015-02-22T09:44:21.853Z,100657
2015-02-22T09:44:32.948Z,100665
2015-02-22T09:44:44.424Z,100665
2015-02-22T09:44:55.675Z,100657
2015-02-22T09:46:04.992Z,100663
2015-02-22T09:46:15.561Z,100666
2015-02-22T09:46:27.114Z,100668
2015-02-22T09:46:37.835Z,100668
2015-02-22T09:46:48.389Z,100668
2015-02-22T09:47:54.945Z,100663
2015-02-22T09:48:05.781Z,100660
2015-02-22T09:48:16.405Z,100666
2015-02-22T09:48:26.983Z,100663
2015-02-22T09:48:37.876Z,100660
2015-02-22T09:48:48.810Z,100671
2015-02-22T09:48:59.494Z,100657
2015-02-22T09:49:10.376Z,100669
2015-02-22T09:49:21.073Z,100660
2015-02-22T09:49:31.718Z,100669
2015-02-22T09:49:42.726Z,100669
2015-02-22T09:49:57.003Z,100660
2015-02-22T09:50:10.586Z,100669
2015-02-22T09:50:21.508Z,100666
2015-02-22T09:50:32.601Z,100660
2015-02-22T09:50:43.256Z,100666
2015-02-22T09:50:53.924Z,100669
2015-02-22T09:51:04.714Z,100669
2015-02-22T09:51:15.470Z,100660
2015-02-22T09:51:26.035Z,100657
2015-02-22T09:51:36.726Z,100660
2015-02-22T09:51:55.033Z,100655
2015-02-22T09:52:05.854Z,100660
2015-02-22T09:52:16.411Z,100657
2015-02-22T09:52:27.098Z,100655
2015-02-22T09:52:37.783Z,100669
2015-02-22T09:52:48.963Z,100669
2015-02-22T09:52:59.588Z,100663
2015-02-22T09:53:10.418Z,100657
2015-02-22T09:53:21.385Z,100669
2015-02-22T09:53:32.111Z,100655
2015-02-22T09:53:43.028Z,100660
2015-02-22T09:53:53.859Z,100666
2015-02-22T09:54:06.068Z,100669
2015-02-22T09:54:17.418Z,100674
2015-02-22T09:54:28.959Z,100658
2015-02-22T09:54:40.946Z,100666
2015-02-22T09:54:51.790Z,100660
2015-02-22T09:55:06.503Z,100655
2015-02-22T09:55:19.469Z,100663
2015-02-22T09:55:37.566Z,100660
2015-02-22T09:55:50.612Z,100658
2015-02-22T09:56:05.738Z,100653
2015-02-22T09:56:17.358Z,100666
2015-02-22T09:56:36.202Z,100658
2015-02-22T09:56:47.588Z,100666
2015-02-22T09:57:55.596Z,100664
2015-02-22T09:58:08.550Z,100664
2015-02-22T09:58:20.043Z,100675
2015-02-22T09:58:31.954Z,100661
2015-02-22T09:58:43.632Z,100669
2015-02-22T09:59:50.496Z,100664
2015-02-22T10:01:06.576Z,100664
2015-02-22T10:01:19.106Z,100661
2015-02-22T10:01:32.155Z,100669
2015-02-22T10:01:43.812Z,100664
2015-02-22T10:01:56.925Z,100661
2015-02-22T10:02:09.126Z,100655
2015-02-22T10:02:21.063Z,100664
2015-02-22T10:02:33.007Z,100664
2015-02-22T10:02:46.010Z,100655
2015-02-22T10:04:02.270Z,100664
2015-02-22T10:04:14.427Z,100667
2015-02-22T10:04:32.819Z,100667
2015-02-22T10:04:45.589Z,100661
2015-02-22T10:05:13.612Z,100670
2015-02-22T10:05:32.705Z,100678
2015-02-22T10:05:46.073Z,100667
2015-02-22T10:06:02.391Z,100675
2015-02-22T10:06:14.150Z,100664
2015-02-22T10:06:29.319Z,100667
2015-02-22T10:06:41.737Z,100670
2015-02-22T10:06:54.768Z,100664
2015-02-22T10:07:11.497Z,100670
2015-02-22T10:07:24.725Z,100670
2015-02-22T10:07:37.589Z,100664
2015-02-22T10:08:05.835Z,100667
2015-02-22T10:08:17.944Z,100675
2015-02-22T10:08:30.924Z,100675
2015-02-22T10:08:44.394Z,100672
2015-02-22T10:09:06.822Z,100675
2015-02-22T10:09:28.988Z,100675
2015-02-22T10:09:49.354Z,100664
2015-02-22T10:10:11.176Z,100667
2015-02-22T10:10:32.102Z,100664
2015-02-22T10:10:44.438Z,100664
2015-02-22T10:11:01.436Z,100670
2015-02-22T10:11:14.491Z,100661
2015-02-22T10:11:34.734Z,100667
2015-02-22T10:11:54.823Z,100667
2015-02-22T10:12:11.116Z,100664
2015-02-22T10:12:24.295Z,100675
2015-02-22T10:12:40.217Z,100675
2015-02-22T10:13:03.507Z,100672
2015-02-22T10:13:34.018Z,100675
2015-02-22T10:13:52.174Z,100672
2015-02-22T10:14:10.018Z,100678
2015-02-22T10:14:22.657Z,100667
2015-02-22T10:14:36.354Z,100672
2015-02-22T10:14:50.027Z,100678
2015-02-22T10:16:05.692Z,100681
2015-02-22T10:17:17.814Z,100675
2015-02-22T10:17:33.636Z,100670
2015-02-22T10:17:50.595Z,100675
2015-02-22T10:18:11.129Z,100675
2015-02-22T10:18:23.197Z,100678
2015-02-22T10:18:35.741Z,100681
2015-02-22T10:18:48.956Z,100670
2015-02-22T10:19:01.960Z,100672
2015-02-22T10:19:18.939Z,100675
2015-02-22T10:19:32.058Z,100681
2015-02-22T10:19:47.200Z,100678
2015-02-22T10:20:07.385Z,100664
2015-02-22T10:20:23.992Z,100678
2015-02-22T10:20:42.239Z,100669
2015-02-22T10:20:55.742Z,100667
2015-02-22T10:21:14.027Z,100681
2015-02-22T10:21:25.633Z,100678
2015-02-22T10:21:38.403Z,100666
2015-02-22T10:21:58.454Z,100669
2015-02-22T10:22:11.499Z,100675
2015-02-22T10:22:24.259Z,100669
2015-02-22T10:22:43.642Z,100686
2015-02-22T10:23:03.951Z,100666
2015-02-22T10:23:15.801Z,100669
2015-02-22T10:23:32.903Z,100683
2015-02-22T10:23:48.875Z,100669
2015-02-22T10:24:10.478Z,100675
2015-02-22T10:24:22.738Z,100672
2015-02-22T10:24:38.786Z,100674
2015-02-22T10:24:51.625Z,100686
2015-02-22T10:26:03.022Z,100691
2015-02-22T10:26:15.266Z,100688
2015-02-22T10:26:27.087Z,100685
2015-02-22T10:26:42.234Z,100688
2015-02-22T10:27:52.486Z,100688
2015-02-22T10:28:05.029Z,100685
2015-02-22T10:28:16.758Z,100691
2015-02-22T10:28:28.744Z,100697
2015-02-22T10:28:40.687Z,100702
2015-02-22T10:28:53.951Z,100694
2015-02-22T10:29:09.708Z,100696
2015-02-22T10:29:21.356Z,100691
2015-02-22T10:29:39.786Z,100696
2015-02-22T10:29:51.857Z,100688
2015-02-22T10:30:14.518Z,100702
2015-02-22T10:30:26.357Z,100691
2015-02-22T10:30:38.075Z,100694
2015-02-22T10:30:55.889Z,100702
2015-02-22T10:31:11.583Z,100691
2015-02-22T10:31:23.435Z,100688
2015-02-22T10:31:35.988Z,100694
2015-02-22T10:31:49.111Z,100694
2015-02-22T10:32:05.905Z,100685
2015-02-22T10:32:20.530Z,100691
2015-02-22T10:32:32.635Z,100699
2015-02-22T10:32:45.560Z,100705
2015-02-22T10:33:02.356Z,100699
2015-02-22T10:34:05.639Z,100693
2015-02-22T10:34:17.999Z,100704
2015-02-22T10:34:32.567Z,100702
2015-02-22T10:34:45.388Z,100699
2015-02-22T10:35:03.837Z,100699
2015-02-22T10:35:16.583Z,100699
2015-02-22T10:35:29.151Z,100699
2015-02-22T10:35:44.435Z,100701
2015-02-22T10:35:57.071Z,100704
2015-02-22T10:36:10.162Z,100698
2015-02-22T10:36:22.445Z,100701
2015-02-22T10:36:34.557Z,100695
2015-02-22T10:36:47.066Z,100695
2015-02-22T10:37:00.645Z,100707
2015-02-22T10:37:13.454Z,100712
2015-02-22T10:37:25.396Z,100704
2015-02-22T10:37:37.180Z,100698
2015-02-22T10:37:52.944Z,100698
2015-02-22T10:38:04.526Z,100701
2015-02-22T10:38:16.304Z,100704
2015-02-22T10:38:28.399Z,100707
2015-02-22T10:38:39.939Z,100701
2015-02-22T10:38:51.183Z,100704
2015-02-22T10:39:04.091Z,100707
2015-02-22T10:39:15.895Z,100718
2015-02-22T10:39:26.885Z,100709
2015-02-22T10:39:37.782Z,100712
2015-02-22T10:39:48.736Z,100704
2015-02-22T10:39:59.821Z,100704
2015-02-22T10:41:09.106Z,100709
2015-02-22T10:41:20.165Z,100710
2015-02-22T10:41:31.332Z,100710
2015-02-22T10:41:42.521Z,100710
2015-02-22T10:41:53.949Z,100710
2015-02-22T10:42:04.816Z,100701
2015-02-22T10:42:16.350Z,100704
2015-02-22T10:42:27.014Z,100704
2015-02-22T10:42:38.303Z,100710
2015-02-22T10:42:54.818Z,100710
2015-02-22T10:43:05.923Z,100710
2015-02-22T10:44:12.250Z,100701
2015-02-22T10:44:23.761Z,100710
2015-02-22T10:44:34.485Z,100712
2015-02-22T10:44:45.095Z,100704
2015-02-22T10:46:00.325Z,100712
2015-02-22T10:46:11.067Z,100718
2015-02-22T10:46:21.797Z,100723
2015-02-22T10:46:32.417Z,100721
2015-02-22T10:46:43.915Z,100712
2015-02-22T10:46:55.076Z,100718
2015-02-22T10:47:06.484Z,100715
2015-02-22T10:47:17.430Z,100712
2015-02-22T10:48:24.402Z,100735
2015-02-22T10:48:35.161Z,100729
2015-02-22T10:48:45.958Z,100721
2015-02-22T10:48:57.843Z,100715
2015-02-22T10:49:09.288Z,100715
2015-02-22T10:49:20.390Z,100723
2015-02-22T10:49:31.534Z,100732
2015-02-22T10:49:42.374Z,100723
2015-02-22T10:49:53.299Z,100723
2015-02-22T10:51:02.217Z,100729
2015-02-22T10:51:13.338Z,100717
2015-02-22T10:51:24.047Z,100726
2015-02-22T10:51:34.639Z,100715
2015-02-22T10:51:47.875Z,100732
2015-02-22T10:51:59.145Z,100709
2015-02-22T10:52:10.670Z,100729
2015-02-22T10:52:21.812Z,100718
2015-02-22T10:52:33.225Z,100720
2015-02-22T10:52:44.654Z,100723
2015-02-22T10:52:55.690Z,100720
2015-02-22T10:53:06.584Z,100732
2015-02-22T10:53:17.370Z,100718
2015-02-22T10:53:27.966Z,100720
2015-02-22T10:53:39.071Z,100720
2015-02-22T10:54:52.231Z,100720
2015-02-22T10:55:08.061Z,100723
2015-02-22T10:55:19.691Z,100718
2015-02-22T10:55:30.643Z,100718
2015-02-22T10:55:41.241Z,100726
2015-02-22T10:55:51.989Z,100720
2015-02-22T10:56:04.007Z,100712
2015-02-22T10:56:14.906Z,100715
2015-02-22T10:56:25.423Z,100720
2015-02-22T10:56:36.102Z,100712
2015-02-22T10:56:49.439Z,100715
2015-02-22T10:57:00.095Z,100720
2015-02-22T10:57:10.879Z,100726
2015-02-22T10:57:21.529Z,100712
2015-02-22T10:57:32.605Z,100717
2015-02-22T10:57:43.673Z,100717
2015-02-22T10:57:55.437Z,100709
2015-02-22T10:58:09.414Z,100712
2015-02-22T10:58:27.211Z,100717
2015-02-22T10:58:37.928Z,100720
2015-02-22T10:58:48.600Z,100726
2015-02-22T10:59:55.360Z,100711
2015-02-22T11:00:10.822Z,100717
2015-02-22T11:00:22.453Z,100711
2015-02-22T11:00:33.924Z,100711
2015-02-22T11:00:44.703Z,100717
2015-02-22T11:00:56.513Z,100723
2015-02-22T11:01:07.454Z,100720
2015-02-22T11:01:18.361Z,100731
2015-02-22T11:01:29.398Z,100723
2015-02-22T11:01:40.492Z,100720
2015-02-22T11:01:55.412Z,100714
2015-02-22T11:02:06.420Z,100714
2015-02-22T11:02:17.228Z,100722
2015-02-22T11:02:27.895Z,100717
2015-02-22T11:02:39.450Z,100714
2015-02-22T11:02:50.859Z,100717
2015-02-22T11:03:02.617Z,100717
2015-02-22T11:03:13.668Z,100705
2015-02-22T11:04:22.271Z,100717
2015-02-22T11:04:33.197Z,100708
2015-02-22T11:04:44.104Z,100714
2015-02-22T11:05:50.264Z,100708
2015-02-22T11:06:03.054Z,100725
2015-02-22T11:06:14.483Z,100723
2015-02-22T11:06:25.159Z,100711
2015-02-22T11:06:42.390Z,100720
2015-02-22T11:07:52.463Z,100717
2015-02-22T11:09:58.453Z,100714
2015-02-22T11:10:15.823Z,100717
2015-02-22T11:10:36.293Z,100714
2015-02-22T11:10:49.289Z,100709
2015-02-22T11:11:02.904Z,100720
2015-02-22T11:11:16.258Z,100717
2015-02-22T11:11:29.813Z,100711
2015-02-22T11:12:43.136Z,100709
2015-02-22T11:12:55.757Z,100703
2015-02-22T11:13:08.446Z,100711
2015-02-22T11:14:10.472Z,100711
2015-02-22T11:14:23.411Z,100708
2015-02-22T11:14:35.570Z,100703
2015-02-22T11:14:48.154Z,100708
2015-02-22T11:15:04.874Z,100705
2015-02-22T11:15:21.274Z,100697
2015-02-22T11:15:36.317Z,100694
